• Join FlightAware (Why Join?)
  • Login
  • US Flag 
04:16PM EST


 

Airport Tracker/Info


-or-


 

Live Flight TrackerFlight Track Log ✈ SKW5631 ✈ 26-Apr-2013 ✈ KSFO - KPSP

Flight Track Log - Related Links

Times and Time Zones

All times are in EDT time to prevent confusion due to time zone crossing. See the SKW5631 flight status page for this flight to view local times or setup timezone preferences in your user account.

Time Position Orientation Groundspeed Altitude Reporting Facility
EDT Latitude Longitude Course Direction KTS MPH feet Rate Location/Type
03:37PM 37.6833 -122.3667 122° Southeast 203 234 2,600  Level Northern Cal TRACON
03:38PM 37.7050 -122.3644 North 197 227 3,700 2,460 Climbing Oakland Center
03:38PM 37.7333 -122.4000 315° West 252 290 5,100 2,820 Climbing Northern Cal TRACON
03:39PM 37.6667 -122.4500 211° Southwest 259 298 7,700 2,520 Climbing Northern Cal TRACON
03:40PM 37.6000 -122.4667 191° South 294 338 10,200 2,100 Climbing Northern Cal TRACON
03:41PM 37.5586 -122.4542 167° South 301 346 11,200 2,100 Climbing Oakland Center
03:42PM 37.4686 -122.3831 148° Southeast 329 379 13,800 2,220 Climbing Oakland Center
03:43PM 37.2889 -122.1445 122° Southeast  Level FlightAware Approximate
03:43PM 37.4097 -122.2861 127° Southeast 347 399 15,800  Level Oakland Center
03:44PM 37.3478 -122.1872 128° Southeast 361 415 17,700 2,040 Climbing Oakland Center
03:45PM 37.2847 -122.0861 128° Southeast 368 423 20,000 2,040 Climbing Oakland Center
03:46PM 37.2206 -121.9828 128° Southeast 376 433 22,000 1,800 Climbing Oakland Center
03:47PM 37.1553 -121.8767 128° Southeast 384 442 23,700 1,260 Climbing Oakland Center
03:48PM 37.0811 -121.7586 128° Southeast 400 460 24,700 1,260 Climbing Oakland Center
03:49PM 36.9983 -121.6311 129° Southeast 419 482 26,300 1,260 Climbing Oakland Center
03:50PM 36.9244 -121.5122 128° Southeast 430 495 27,400 1,260 Climbing Oakland Center
03:51PM 36.8525 -121.3922 127° Southeast 433 498 29,000 780 Climbing Oakland Center
03:52PM 36.7669 -121.2642 130° Southeast 445 512 29,000  Level Oakland Center
03:53PM 36.6878 -121.1389 128° Southeast 455 524 29,000  Level Oakland Center
03:54PM 36.6072 -121.0114 128° Southeast 465 535 29,000  Level Oakland Center
03:55PM 36.5258 -120.8842 129° Southeast 469 540 29,000  Level Oakland Center
03:56PM 36.4439 -120.7561 128° Southeast 473 544 29,000  Level Oakland Center
03:57PM 36.3606 -120.6283 129° Southeast 475 547 29,000  Level Oakland Center
03:58PM 36.2778 -120.5003 129° Southeast 476 548 29,000  Level Oakland Center
03:59PM 36.1919 -120.3692 129° Southeast 486 559 29,000  Level Oakland Center
04:00PM 36.1078 -120.2411 129° Southeast 477 549 29,000  Level Oakland Center
04:01PM 36.0069 -120.0883 129° Southeast 475 547 29,000  Level Oakland Center
04:02PM 35.9250 -119.9644 129° Southeast 466 536 29,000  Level Oakland Center
04:03PM 35.8403 -119.8375 129° Southeast 474 545 29,000  Level Oakland Center
04:05PM 35.7569 -119.7122 129° Southeast 471 542 29,000  Level Oakland Center
04:06PM 35.6725 -119.5858 129° Southeast 476 548 29,000  Level Oakland Center
04:07PM 35.5872 -119.4606 130° Southeast 474 545 29,000  Level Oakland Center
04:08PM 35.5050 -119.3350 129° Southeast 476 548 29,000  Level Los Angeles Center
04:09PM 35.4197 -119.2108 130° Southeast 475 547 29,000  Level Los Angeles Center
04:10PM 35.3356 -119.0856 129° Southeast 474 545 29,000  Level Los Angeles Center
04:11PM 35.2514 -118.9586 129° Southeast 478 550 29,000 -240 Level Los Angeles Center
04:12PM 35.1453 -118.8061 130° Southeast 488 562 28,600 -720 Descending Los Angeles Center
04:13PM 35.0592 -118.6819 130° Southeast 482 555 27,600 -840 Descending Los Angeles Center
04:14PM 34.9747 -118.5578 130° Southeast 477 549 26,900 -300 Descending Los Angeles Center
04:15PM 34.8917 -118.4369 130° Southeast 468 539 27,000 -720 Climbing Los Angeles Center
04:16PM 34.8086 -118.3183 130° Southeast 465 535 25,500 -1,740 Descending Los Angeles Center
04:17PM 34.7203 -118.1942 131° Southeast 481 554 23,500 -2,160 Descending Los Angeles Center
04:18PM 34.6211 -118.0444 129° Southeast 478 550 21,100 -1,980 Descending Los Angeles Center
04:19PM 34.5500 -117.8864 119° Southeast 450 518 19,100 -1,500 Descending Los Angeles Center
04:20PM 34.4908 -117.7581 119° Southeast 441 507 17,800 -1,020 Descending Los Angeles Center
04:21PM 34.4322 -117.6319 119° Southeast 433 498 17,000 -360 Descending Los Angeles Center
04:22PM 34.3711 -117.4967 119° Southeast 406 467 17,100  Climbing Los Angeles Center
04:23PM 34.3169 -117.3817 120° Southeast 396 456 17,100 -120 Level Los Angeles Center
04:24PM 34.2656 -117.2711 119° Southeast 384 442 16,900 -840 Descending Los Angeles Center
04:25PM 34.2236 -117.1436 112° Southeast 395 455 15,400 -1,260 Descending Los Angeles Center
04:26PM 34.1856 -117.0150 110° East 405 466 14,300 -660 Descending Los Angeles Center
04:27PM 34.1542 -116.8958 108° East 375 432 14,100 -180 Descending Los Angeles Center
04:28PM 34.1047 -116.7989 122° Southeast 304 350 14,000 -60 Descending Los Angeles Center
04:29PM 34.0578 -116.7222 126° Southeast 287 330 14,000 -1,200 Level Los Angeles Center
04:31PM 34.0017 -116.6503 133° Southeast 291 335 11,600 -1,500 Descending Los Angeles Center
04:32PM 33.9508 -116.5853 133° Southeast 277 319 11,000 -1,560 Descending Los Angeles Center
04:33PM 33.9333 -116.5025 104° East 260 299 8,400 -1,560 Descending Los Angeles Center
04:35PM 33.9833 -116.4833 18° North 242 278 5,800 -1,260 Descending Southern California TRACON
04:36PM 33.9500 -116.5500 239° Southwest 225 259 4,300 -1,560 Descending Southern California TRACON
04:37PM 33.9000 -116.5667 195° South 185 213 2,700 -1,500 Descending Southern California TRACON
04:38PM 33.8667 -116.5333 140° Southeast 141 162 1,300 -1,380 Descending Southern California TRACON
04:40PM 33.8297 -116.5067 239° Southwest  Level Estimated
04:47PM 33.8297 -116.5067 239° Southwest  Level Estimated